METAR Data
IDs: Format: Raw Decoded Include TAF

Data at: 1554 UTC 03 Jul 2020

METAR for:KAOH (Lima/Allen Cnty, OH, US)
Text:KAOH 031453Z AUTO 23004KT 10SM CLR 29/17 A3004 RMK AO2 SLP165 T02940172 58001
Temperature: 29.4°C ( 85°F)
Dewpoint: 17.2°C ( 63°F) [RH = 48%]
Pressure (altimeter):30.04 inches Hg (1017.4 mb) [Sea level pressure: 1016.5 mb]
Winds:from the SW (230 degrees) at 5 MPH (4 knots; 2.1 m/s)
Visibility:10 or more sm (16+ km)
Ceiling:at least 12,000 feet AGL
Clouds:sky clear below 12,000 feet AGL
QC Flag:automated observation with no human augmentation